Pagrindinis puslapis
METAR-TAF:

METAR-TAF

Oro uostai :

Block Island, Rod Ailandas, Jungtinės Amerikos Valstijos

platuma: 41-10N, ilguma: 071-34W, Aukštis: 33 m

Dabartinis oras

Ataskaita buvo paskelbta 25 minutes, ne 06:56 UTC
Vėjas 23 kt iš Vakarų su gūsio iki 33 kt
Temperatūra -1°C
Drėgmė 46%
Slėgis 1008 hPa
Matomumas: 16.1 km
Apsiniaukę ne aukštis 5500 ft

METAR: KBID 280656Z AUTO 27023G33KT 10SM OVC055 M01/M11 A2976 RMK AO2 PK WND 26033/0647 UPB06E35 SLP079 T10061111 FZRANO PNO $

Laikas: 02:21 (07:21 UTC)


TAF: trūkstamas

Orai ataskaitas ir orų prognozės (METAR, TAF).

turimą stotys yra geltonos ir raudonos taškus žemėlapyje.

Perkelti pele per norėdami pamatyti stoties vardą.

Tada spustelėkite, norėdami matyti oro stebėjimo ir prognozės.

Norėdami pakeisti žemėlapį: spustelėkite ant žalios mygtukų su juodo kryžiaus žemyn,; žalią mygtuką su brūkšneliu, jei norite nutolinti; arba žalių rodyklių gretimoms žemėlapius.


METAR-TAF: